Fort Bragg, CA (95437)

10:43 PM PDT on August 20, 2014 (GMT -0700)
APRSWXNET Fort Bragg CA US | Change Station
CLOSE
Current Station
Personal Weather Station
Location: Caspar, CA
Elevation: 399 ft
Nearby Weather Stations

Elev 399 ft 39.38 °N, 123.78 °W | Updated 40 minutes ago

Clear
Clear
57 °F
Feels Like 57 °F
N
0
Wind Variable Wind from SW
Gusts 2.0 mph

Today
High -- | Low -- °F
--% Chance of Precip.
Yesterday
High -- | Low -- °F
Precip. -- in
6:32 AM 8:03 PM
Waning Crescent, 16% visible
Pressure 29.87 in
Visibility 10.0 miles
Clouds Clear
Dew Point 56 °F
Humidity 96%
Rainfall 0.01 in
Snow Depth Not available.
UV 0 out of 12
Pollen 6.90 out of 12
Air Quality Not available.
Flu Activity Not available.
METAR KUKI 210456Z AUTO 18006KT 10SM CLR 19/13 A2988 RMK AO2 SLP113 T01940133

More Conditions Fewer Conditions

Pressure 29.87 in
Visibility 10.0 miles
Clouds Clear
Dew Point 56 °F
Humidity 96%
Rainfall 0.01 in
Snow Depth Not available.
UV 0 out of 12
Pollen 6.90 out of 12
Air Quality Not available.
Flu Activity Not available.
METAR KUKI 210456Z AUTO 18006KT 10SM CLR 19/13 A2988 RMK AO2 SLP113 T01940133

More Conditions Fewer Conditions

10-Day Weather Forecast

Almanac

Astronomy

Aug. 20, 2014 Rise Set
Actual Time 6:32 AM PDT 8:03 PM PDT
Civil Twilight 6:04 AM PDT 8:32 PM PDT
Nautical Twilight 5:30 AM PDT 9:06 PM PDT
Astronomical Twilight 4:53 AM PDT 9:41 PM PDT
Moon 2:17 AM PDT (8/20) 4:52 PM PDT (8/20)
Length of Visible Light 14h 27m
Length of Day
13h 31m
Tomorrow will be 2m 21s shorter.
Waning Crescent, 16% of the Moon is Illuminated
Aug 21
Waning Crescent
Aug 25
New
Sep 2
First Quarter
Sep 8
Full
Sep 15
Last Quarter

Yesterday's Extremes

State Highs State Lows

Community

WunderPhotos

Upload Photos

1,745,858 photos uploaded!

Nearby

Snow Depth

Station Depth Elevation
Adin Mountain 1 in 6200 ft
Echo Peak 1 in 7800 ft
Hagan's Meadow 0 in 8000 ft
Forestdale Creek 0 in 8029 ft
Monitor Pass 0 in 8350 ft

Earthquake Activity

City Distance Mag. Time & Date
No recent earthquake activity has been reported nearby.
Minimum magnitude displayed is 2.5.

Coastal Water Temperatures

Place Temperature
Arena Cove, CA 57.9 °F
North Spit, CA 54.0 °F
Point Reyes, CA 60.1 °F
San Francisco, CA 64.0 °F
Richmond, CA 66.0 °F

Nearby Weather Stations